sensor_id;sensor_type;location;lat;lon;timestamp;pressure;altitude;pressure_sealevel;temperature;humidity
81397;BME280;70852;49.908;8.126;2023-08-31T00:01:14;99625.81;;;12.64;88.06
81397;BME280;70852;49.908;8.126;2023-08-31T00:03:39;99623.84;;;12.53;87.70
81397;BME280;70852;49.908;8.126;2023-08-31T00:06:04;99627.09;;;12.55;88.07
81397;BME280;70852;49.908;8.126;2023-08-31T00:08:32;99631.47;;;12.43;88.17
81397;BME280;70852;49.908;8.126;2023-08-31T00:11:01;99634.03;;;12.49;88.44
81397;BME280;70852;49.908;8.126;2023-08-31T00:13:27;99632.63;;;12.42;87.82
81397;BME280;70852;49.908;8.126;2023-08-31T00:15:57;99638.50;;;12.41;87.45
81397;BME280;70852;49.908;8.126;2023-08-31T00:18:23;99643.25;;;12.40;88.42
81397;BME280;70852;49.908;8.126;2023-08-31T00:20:49;99643.03;;;12.45;88.30
81397;BME280;70852;49.908;8.126;2023-08-31T00:23:17;99650.19;;;12.46;87.22
81397;BME280;70852;49.908;8.126;2023-08-31T00:25:44;99653.88;;;12.38;87.82
81397;BME280;70852;49.908;8.126;2023-08-31T00:28:10;99648.69;;;12.37;88.11
81397;BME280;70852;49.908;8.126;2023-08-31T00:30:35;99644.50;;;12.31;87.89
81397;BME280;70852;49.908;8.126;2023-08-31T00:33:01;99643.16;;;12.25;88.16
81397;BME280;70852;49.908;8.126;2023-08-31T00:35:29;99649.50;;;12.25;88.48
81397;BME280;70852;49.908;8.126;2023-08-31T00:37:55;99646.13;;;12.32;87.61
81397;BME280;70852;49.908;8.126;2023-08-31T00:40:26;99650.78;;;12.28;88.15
81397;BME280;70852;49.908;8.126;2023-08-31T00:42:53;99646.25;;;12.23;87.36
81397;BME280;70852;49.908;8.126;2023-08-31T00:45:23;99643.28;;;12.28;87.89
81397;BME280;70852;49.908;8.126;2023-08-31T00:47:49;99645.91;;;12.25;87.88
81397;BME280;70852;49.908;8.126;2023-08-31T00:50:15;99647.88;;;12.24;88.39
81397;BME280;70852;49.908;8.126;2023-08-31T00:52:43;99652.47;;;12.32;88.54
81397;BME280;70852;49.908;8.126;2023-08-31T00:55:12;99650.53;;;12.33;88.38
81397;BME280;70852;49.908;8.126;2023-08-31T00:57:38;99648.56;;;12.21;88.29
81397;BME280;70852;49.908;8.126;2023-08-31T01:00:04;99651.66;;;12.20;88.75
81397;BME280;70852;49.908;8.126;2023-08-31T01:02:36;99653.97;;;12.30;88.12
81397;BME280;70852;49.908;8.126;2023-08-31T01:05:12;99653.75;;;12.23;88.06
81397;BME280;70852;49.908;8.126;2023-08-31T01:08:12;99648.22;;;12.23;88.28
81397;BME280;70852;49.908;8.126;2023-08-31T01:10:58;99660.31;;;12.06;88.32
81397;BME280;70852;49.908;8.126;2023-08-31T01:13:26;99662.38;;;12.09;88.85
81397;BME280;70852;49.908;8.126;2023-08-31T01:16:03;99660.09;;;12.11;88.46
81397;BME280;70852;49.908;8.126;2023-08-31T01:18:36;99656.75;;;12.05;88.08
81397;BME280;70852;49.908;8.126;2023-08-31T01:21:11;99669.06;;;11.96;88.16
81397;BME280;70852;49.908;8.126;2023-08-31T01:23:55;99665.25;;;12.00;88.74
81397;BME280;70852;49.908;8.126;2023-08-31T01:26:24;99655.69;;;11.98;88.08
81397;BME280;70852;49.908;8.126;2023-08-31T01:28:51;99657.53;;;11.94;89.10
81397;BME280;70852;49.908;8.126;2023-08-31T01:31:19;99652.03;;;12.06;88.90
81397;BME280;70852;49.908;8.126;2023-08-31T01:33:45;99655.16;;;12.17;89.32
81397;BME280;70852;49.908;8.126;2023-08-31T01:36:34;99649.50;;;12.25;88.47
81397;BME280;70852;49.908;8.126;2023-08-31T01:39:15;99635.31;;;12.27;88.91
81397;BME280;70852;49.908;8.126;2023-08-31T01:41:49;99642.34;;;12.24;88.69
81397;BME280;70852;49.908;8.126;2023-08-31T01:44:18;99648.34;;;12.26;89.03
81397;BME280;70852;49.908;8.126;2023-08-31T01:46:52;99649.94;;;12.15;88.20
81397;BME280;70852;49.908;8.126;2023-08-31T01:49:23;99645.78;;;12.21;89.77
81397;BME280;70852;49.908;8.126;2023-08-31T01:51:53;99646.03;;;12.16;89.93
81397;BME280;70852;49.908;8.126;2023-08-31T01:54:21;99656.53;;;12.23;89.93
81397;BME280;70852;49.908;8.126;2023-08-31T01:56:49;99662.97;;;12.15;90.50
81397;BME280;70852;49.908;8.126;2023-08-31T01:59:17;99667.00;;;12.29;89.85
81397;BME280;70852;49.908;8.126;2023-08-31T02:01:47;99670.03;;;12.36;89.39
81397;BME280;70852;49.908;8.126;2023-08-31T02:04:12;99666.31;;;12.32;89.11
81397;BME280;70852;49.908;8.126;2023-08-31T02:06:40;99671.84;;;12.20;89.48
81397;BME280;70852;49.908;8.126;2023-08-31T02:09:08;99679.72;;;12.18;89.20
81397;BME280;70852;49.908;8.126;2023-08-31T02:11:34;99670.13;;;12.16;89.53
81397;BME280;70852;49.908;8.126;2023-08-31T02:14:05;99658.81;;;11.96;90.07
81397;BME280;70852;49.908;8.126;2023-08-31T02:16:34;99669.97;;;12.00;90.19
81397;BME280;70852;49.908;8.126;2023-08-31T02:18:59;99676.09;;;11.93;90.03
81397;BME280;70852;49.908;8.126;2023-08-31T02:21:25;99662.59;;;11.92;89.61
81397;BME280;70852;49.908;8.126;2023-08-31T02:23:50;99673.88;;;11.87;89.61
81397;BME280;70852;49.908;8.126;2023-08-31T02:26:15;99682.06;;;11.83;89.52
81397;BME280;70852;49.908;8.126;2023-08-31T02:28:43;99686.84;;;11.74;89.99
81397;BME280;70852;49.908;8.126;2023-08-31T02:31:11;99688.13;;;11.77;89.72
81397;BME280;70852;49.908;8.126;2023-08-31T02:33:37;99691.50;;;11.82;89.38
81397;BME280;70852;49.908;8.126;2023-08-31T02:36:05;99685.75;;;11.75;89.96
81397;BME280;70852;49.908;8.126;2023-08-31T02:38:30;99689.34;;;11.67;90.06
81397;BME280;70852;49.908;8.126;2023-08-31T02:40:58;99684.97;;;11.66;90.06
81397;BME280;70852;49.908;8.126;2023-08-31T02:43:23;99692.22;;;11.58;89.96
81397;BME280;70852;49.908;8.126;2023-08-31T02:46:00;99697.97;;;11.65;90.04
81397;BME280;70852;49.908;8.126;2023-08-31T02:48:26;99695.66;;;11.55;90.36
81397;BME280;70852;49.908;8.126;2023-08-31T02:50:53;99686.25;;;11.68;89.81
81397;BME280;70852;49.908;8.126;2023-08-31T02:53:21;99698.88;;;11.57;89.51
81397;BME280;70852;49.908;8.126;2023-08-31T02:55:46;99697.81;;;11.50;89.59
81397;BME280;70852;49.908;8.126;2023-08-31T02:58:11;99705.16;;;11.46;89.68
81397;BME280;70852;49.908;8.126;2023-08-31T03:00:42;99699.38;;;11.38;90.04
81397;BME280;70852;49.908;8.126;2023-08-31T03:03:13;99707.81;;;11.42;90.01
81397;BME280;70852;49.908;8.126;2023-08-31T03:05:40;99707.34;;;11.40;89.62
81397;BME280;70852;49.908;8.126;2023-08-31T03:08:10;99699.25;;;11.35;89.40
81397;BME280;70852;49.908;8.126;2023-08-31T03:10:36;99706.72;;;11.34;89.13
81397;BME280;70852;49.908;8.126;2023-08-31T03:13:02;99702.66;;;11.20;89.81
81397;BME280;70852;49.908;8.126;2023-08-31T03:15:34;99699.16;;;11.11;90.30
81397;BME280;70852;49.908;8.126;2023-08-31T03:18:01;99697.53;;;11.10;89.71
81397;BME280;70852;49.908;8.126;2023-08-31T03:20:27;99703.31;;;11.17;89.38
81397;BME280;70852;49.908;8.126;2023-08-31T03:22:55;99695.16;;;11.20;89.29
81397;BME280;70852;49.908;8.126;2023-08-31T03:25:22;99700.88;;;11.15;89.86
81397;BME280;70852;49.908;8.126;2023-08-31T03:27:51;99710.84;;;11.08;89.99
81397;BME280;70852;49.908;8.126;2023-08-31T03:30:21;99709.44;;;11.02;89.53
81397;BME280;70852;49.908;8.126;2023-08-31T03:32:50;99709.06;;;11.12;89.45
81397;BME280;70852;49.908;8.126;2023-08-31T03:35:18;99706.47;;;11.07;89.53
81397;BME280;70852;49.908;8.126;2023-08-31T03:37:47;99701.03;;;10.98;90.29
81397;BME280;70852;49.908;8.126;2023-08-31T03:40:17;99705.41;;;10.99;89.59
81397;BME280;70852;49.908;8.126;2023-08-31T03:42:47;99708.16;;;11.20;89.23
81397;BME280;70852;49.908;8.126;2023-08-31T03:45:15;99704.53;;;11.07;89.36
81397;BME280;70852;49.908;8.126;2023-08-31T03:47:43;99703.31;;;10.96;89.27
81397;BME280;70852;49.908;8.126;2023-08-31T03:50:08;99705.72;;;10.97;89.15
81397;BME280;70852;49.908;8.126;2023-08-31T03:52:34;99711.81;;;10.91;89.50
81397;BME280;70852;49.908;8.126;2023-08-31T03:55:01;99703.84;;;10.89;88.88
81397;BME280;70852;49.908;8.126;2023-08-31T03:57:29;99720.41;;;10.89;89.74
81397;BME280;70852;49.908;8.126;2023-08-31T03:59:57;99717.56;;;10.77;89.63
81397;BME280;70852;49.908;8.126;2023-08-31T04:02:22;99719.19;;;10.78;89.81
81397;BME280;70852;49.908;8.126;2023-08-31T04:04:48;99724.72;;;10.78;89.57
81397;BME280;70852;49.908;8.126;2023-08-31T04:07:13;99725.53;;;10.79;89.14
81397;BME280;70852;49.908;8.126;2023-08-31T04:09:46;99715.69;;;10.69;89.87
81397;BME280;70852;49.908;8.126;2023-08-31T04:12:11;99733.72;;;10.67;89.54
81397;BME280;70852;49.908;8.126;2023-08-31T04:14:38;99743.28;;;10.69;89.85
81397;BME280;70852;49.908;8.126;2023-08-31T04:17:03;99744.75;;;10.67;89.73
81397;BME280;70852;49.908;8.126;2023-08-31T04:19:32;99747.84;;;10.65;89.95
81397;BME280;70852;49.908;8.126;2023-08-31T04:22:01;99759.09;;;10.51;89.74
81397;BME280;70852;49.908;8.126;2023-08-31T04:24:26;99760.88;;;10.56;89.50
81397;BME280;70852;49.908;8.126;2023-08-31T04:26:52;99757.03;;;10.48;89.90
81397;BME280;70852;49.908;8.126;2023-08-31T04:29:17;99749.25;;;10.42;89.35
81397;BME280;70852;49.908;8.126;2023-08-31T04:31:45;99760.13;;;10.47;90.22
81397;BME280;70852;49.908;8.126;2023-08-31T04:34:10;99761.25;;;10.46;90.06
81397;BME280;70852;49.908;8.126;2023-08-31T04:36:38;99754.84;;;10.62;89.65
81397;BME280;70852;49.908;8.126;2023-08-31T04:39:03;99759.59;;;10.53;89.83
81397;BME280;70852;49.908;8.126;2023-08-31T04:41:30;99752.34;;;10.40;90.44
81397;BME280;70852;49.908;8.126;2023-08-31T04:43:55;99751.88;;;10.30;90.43
81397;BME280;70852;49.908;8.126;2023-08-31T04:46:20;99750.75;;;10.31;90.25
81397;BME280;70852;49.908;8.126;2023-08-31T04:48:45;99763.53;;;10.44;90.26
81397;BME280;70852;49.908;8.126;2023-08-31T04:51:30;99759.16;;;10.43;90.26
81397;BME280;70852;49.908;8.126;2023-08-31T04:53:59;99763.78;;;10.59;89.67
81397;BME280;70852;49.908;8.126;2023-08-31T04:56:30;99767.72;;;10.50;90.07
81397;BME280;70852;49.908;8.126;2023-08-31T04:58:55;99759.78;;;10.48;89.30
81397;BME280;70852;49.908;8.126;2023-08-31T05:01:20;99768.69;;;10.54;89.43
81397;BME280;70852;49.908;8.126;2023-08-31T05:03:46;99774.72;;;10.47;89.48
81397;BME280;70852;49.908;8.126;2023-08-31T05:06:11;99776.19;;;10.45;89.81
81397;BME280;70852;49.908;8.126;2023-08-31T05:08:38;99777.63;;;10.51;89.74
81397;BME280;70852;49.908;8.126;2023-08-31T05:11:04;99782.50;;;10.54;90.02
81397;BME280;70852;49.908;8.126;2023-08-31T05:13:31;99789.44;;;10.60;89.85
81397;BME280;70852;49.908;8.126;2023-08-31T05:15:57;99796.56;;;10.70;89.31
81397;BME280;70852;49.908;8.126;2023-08-31T05:18:24;99798.97;;;10.80;89.10
81397;BME280;70852;49.908;8.126;2023-08-31T05:20:52;99799.72;;;10.89;88.77
81397;BME280;70852;49.908;8.126;2023-08-31T05:23:17;99808.94;;;10.93;88.43
81397;BME280;70852;49.908;8.126;2023-08-31T05:25:44;99811.34;;;11.03;88.71
81397;BME280;70852;49.908;8.126;2023-08-31T05:28:12;99812.28;;;11.07;89.03
81397;BME280;70852;49.908;8.126;2023-08-31T05:30:47;99819.59;;;11.12;88.60
81397;BME280;70852;49.908;8.126;2023-08-31T05:33:13;99809.16;;;11.17;88.23
81397;BME280;70852;49.908;8.126;2023-08-31T05:35:38;99816.44;;;11.22;88.67
81397;BME280;70852;49.908;8.126;2023-08-31T05:38:04;99826.03;;;11.45;88.60
81397;BME280;70852;49.908;8.126;2023-08-31T05:40:29;99819.81;;;11.48;88.28
81397;BME280;70852;49.908;8.126;2023-08-31T05:42:56;99831.03;;;11.52;87.84
81397;BME280;70852;49.908;8.126;2023-08-31T05:45:24;99834.72;;;11.56;88.88
81397;BME280;70852;49.908;8.126;2023-08-31T05:47:54;99831.03;;;11.52;87.01
81397;BME280;70852;49.908;8.126;2023-08-31T05:50:20;99833.41;;;11.62;88.13
81397;BME280;70852;49.908;8.126;2023-08-31T05:52:45;99848.19;;;11.87;88.29
81397;BME280;70852;49.908;8.126;2023-08-31T05:55:12;99837.66;;;11.80;89.02
81397;BME280;70852;49.908;8.126;2023-08-31T05:57:38;99834.28;;;11.95;87.86
81397;BME280;70852;49.908;8.126;2023-08-31T06:00:06;99841.78;;;11.95;86.85
81397;BME280;70852;49.908;8.126;2023-08-31T06:02:36;99840.66;;;11.96;87.22
81397;BME280;70852;49.908;8.126;2023-08-31T06:05:04;99849.78;;;12.08;85.66
81397;BME280;70852;49.908;8.126;2023-08-31T06:07:31;99843.91;;;12.10;88.10
81397;BME280;70852;49.908;8.126;2023-08-31T06:09:59;99841.00;;;12.27;88.19
81397;BME280;70852;49.908;8.126;2023-08-31T06:12:28;99841.25;;;12.34;87.37
81397;BME280;70852;49.908;8.126;2023-08-31T06:14:53;99855.00;;;12.43;85.34
81397;BME280;70852;49.908;8.126;2023-08-31T06:17:19;99852.16;;;12.64;87.03
81397;BME280;70852;49.908;8.126;2023-08-31T06:19:46;99841.78;;;12.85;86.32
81397;BME280;70852;49.908;8.126;2023-08-31T06:22:11;99852.31;;;13.04;84.49
81397;BME280;70852;49.908;8.126;2023-08-31T06:24:37;99852.94;;;13.22;82.98
81397;BME280;70852;49.908;8.126;2023-08-31T06:27:05;99854.88;;;13.45;83.20
81397;BME280;70852;49.908;8.126;2023-08-31T06:29:30;99860.19;;;13.50;82.33
81397;BME280;70852;49.908;8.126;2023-08-31T06:31:55;99857.19;;;13.55;83.33
81397;BME280;70852;49.908;8.126;2023-08-31T06:34:20;99861.94;;;13.43;84.53
81397;BME280;70852;49.908;8.126;2023-08-31T06:36:46;99869.44;;;13.30;83.15
81397;BME280;70852;49.908;8.126;2023-08-31T06:39:16;99867.22;;;13.48;83.43
81397;BME280;70852;49.908;8.126;2023-08-31T06:41:44;99875.47;;;13.32;83.14
81397;BME280;70852;49.908;8.126;2023-08-31T06:44:09;99862.50;;;13.12;83.71
81397;BME280;70852;49.908;8.126;2023-08-31T06:46:36;99874.66;;;13.32;82.36
81397;BME280;70852;49.908;8.126;2023-08-31T06:49:06;99870.91;;;13.64;81.80
81397;BME280;70852;49.908;8.126;2023-08-31T06:51:36;99867.41;;;14.19;79.49
81397;BME280;70852;49.908;8.126;2023-08-31T06:54:02;99880.63;;;14.66;78.52
81397;BME280;70852;49.908;8.126;2023-08-31T06:56:36;99884.69;;;15.00;76.80
81397;BME280;70852;49.908;8.126;2023-08-31T06:59:03;99872.91;;;15.54;74.88
81397;BME280;70852;49.908;8.126;2023-08-31T07:01:31;99887.94;;;15.68;75.14
81397;BME280;70852;49.908;8.126;2023-08-31T07:04:00;99884.94;;;15.93;73.30
81397;BME280;70852;49.908;8.126;2023-08-31T07:06:27;99892.78;;;15.87;70.28
81397;BME280;70852;49.908;8.126;2023-08-31T07:08:53;99884.00;;;16.24;70.22
81397;BME280;70852;49.908;8.126;2023-08-31T07:11:23;99887.31;;;15.75;69.80
81397;BME280;70852;49.908;8.126;2023-08-31T07:13:49;99896.22;;;16.00;70.35
81397;BME280;70852;49.908;8.126;2023-08-31T07:16:17;99889.50;;;16.20;70.20
81397;BME280;70852;49.908;8.126;2023-08-31T07:18:44;99897.03;;;16.00;69.20
81397;BME280;70852;49.908;8.126;2023-08-31T07:21:10;99893.59;;;16.45;68.74
81397;BME280;70852;49.908;8.126;2023-08-31T07:23:35;99888.09;;;16.49;66.82
81397;BME280;70852;49.908;8.126;2023-08-31T07:26:00;99888.28;;;17.47;66.81
81397;BME280;70852;49.908;8.126;2023-08-31T07:28:26;99893.06;;;17.73;63.88
81397;BME280;70852;49.908;8.126;2023-08-31T07:31:04;99888.66;;;17.99;63.44
81397;BME280;70852;49.908;8.126;2023-08-31T07:33:31;99892.56;;;17.94;63.28
81397;BME280;70852;49.908;8.126;2023-08-31T07:36:00;99895.06;;;18.03;63.00
81397;BME280;70852;49.908;8.126;2023-08-31T07:38:31;99894.22;;;18.28;63.23
81397;BME280;70852;49.908;8.126;2023-08-31T07:40:57;99885.50;;;18.67;61.41
81397;BME280;70852;49.908;8.126;2023-08-31T07:43:26;99893.72;;;19.34;60.75
81397;BME280;70852;49.908;8.126;2023-08-31T07:45:54;99901.81;;;18.98;58.89
81397;BME280;70852;49.908;8.126;2023-08-31T07:48:19;99901.03;;;19.46;58.86
81397;BME280;70852;49.908;8.126;2023-08-31T07:50:45;99908.78;;;19.59;58.18
81397;BME280;70852;49.908;8.126;2023-08-31T07:53:13;99906.47;;;19.76;57.75
81397;BME280;70852;49.908;8.126;2023-08-31T07:55:50;99915.53;;;19.11;58.30
81397;BME280;70852;49.908;8.126;2023-08-31T07:58:15;99913.97;;;18.76;59.19
81397;BME280;70852;49.908;8.126;2023-08-31T08:00:40;99929.19;;;19.16;57.90
81397;BME280;70852;49.908;8.126;2023-08-31T08:03:06;99930.13;;;19.34;57.65
81397;BME280;70852;49.908;8.126;2023-08-31T08:05:31;99923.44;;;19.97;57.00
81397;BME280;70852;49.908;8.126;2023-08-31T08:07:58;99932.50;;;20.45;54.29
81397;BME280;70852;49.908;8.126;2023-08-31T08:10:23;99933.44;;;20.74;53.65
81397;BME280;70852;49.908;8.126;2023-08-31T08:12:51;99936.69;;;20.94;53.15
81397;BME280;70852;49.908;8.126;2023-08-31T08:15:21;99951.59;;;21.19;52.21
81397;BME280;70852;49.908;8.126;2023-08-31T08:17:46;99943.16;;;21.15;52.24
81397;BME280;70852;49.908;8.126;2023-08-31T08:20:13;99943.59;;;21.25;52.61
81397;BME280;70852;49.908;8.126;2023-08-31T08:22:38;99942.78;;;21.28;49.00
81397;BME280;70852;49.908;8.126;2023-08-31T08:25:06;99949.22;;;21.67;50.73
81397;BME280;70852;49.908;8.126;2023-08-31T08:27:34;99942.38;;;21.43;49.97
81397;BME280;70852;49.908;8.126;2023-08-31T08:30:04;99941.06;;;22.40;48.81
81397;BME280;70852;49.908;8.126;2023-08-31T08:32:29;99951.97;;;22.17;49.96
81397;BME280;70852;49.908;8.126;2023-08-31T08:34:55;99947.59;;;22.09;48.03
81397;BME280;70852;49.908;8.126;2023-08-31T08:37:22;99953.31;;;22.96;49.46
81397;BME280;70852;49.908;8.126;2023-08-31T08:39:51;99945.38;;;23.35;46.07
81397;BME280;70852;49.908;8.126;2023-08-31T08:42:18;99959.47;;;22.62;48.64
81397;BME280;70852;49.908;8.126;2023-08-31T08:44:44;99956.94;;;22.89;46.90
81397;BME280;70852;49.908;8.126;2023-08-31T08:47:13;99962.78;;;23.23;46.89
81397;BME280;70852;49.908;8.126;2023-08-31T08:49:42;99965.09;;;23.39;46.26
81397;BME280;70852;49.908;8.126;2023-08-31T08:52:11;99960.69;;;23.86;45.24
81397;BME280;70852;49.908;8.126;2023-08-31T08:54:37;99966.41;;;23.20;46.05
81397;BME280;70852;49.908;8.126;2023-08-31T08:57:04;99969.47;;;22.81;45.78
81397;BME280;70852;49.908;8.126;2023-08-31T08:59:32;99961.25;;;21.53;49.48
81397;BME280;70852;49.908;8.126;2023-08-31T09:01:57;99961.44;;;20.67;51.50
81397;BME280;70852;49.908;8.126;2023-08-31T09:04:23;99956.41;;;20.21;54.23
81397;BME280;70852;49.908;8.126;2023-08-31T09:06:50;99963.53;;;20.08;53.55
81397;BME280;70852;49.908;8.126;2023-08-31T09:09:18;99964.88;;;19.29;52.83
81397;BME280;70852;49.908;8.126;2023-08-31T09:11:45;99961.50;;;18.73;56.03
81397;BME280;70852;49.908;8.126;2023-08-31T09:14:19;99961.88;;;18.71;58.82
81397;BME280;70852;49.908;8.126;2023-08-31T09:16:51;99953.09;;;18.73;56.40
81397;BME280;70852;49.908;8.126;2023-08-31T09:19:23;99960.81;;;18.83;57.10
81397;BME280;70852;49.908;8.126;2023-08-31T09:21:50;99959.41;;;18.66;56.38
81397;BME280;70852;49.908;8.126;2023-08-31T09:24:15;99957.22;;;20.22;52.72
81397;BME280;70852;49.908;8.126;2023-08-31T09:26:47;99951.97;;;21.07;50.79
81397;BME280;70852;49.908;8.126;2023-08-31T09:29:13;99956.78;;;21.13;50.15
81397;BME280;70852;49.908;8.126;2023-08-31T09:31:41;99938.25;;;22.40;47.17
81397;BME280;70852;49.908;8.126;2023-08-31T09:34:07;99943.16;;;22.08;47.09
81397;BME280;70852;49.908;8.126;2023-08-31T09:36:35;99962.47;;;21.63;46.68
81397;BME280;70852;49.908;8.126;2023-08-31T09:39:08;99947.50;;;22.41;45.74
81397;BME280;70852;49.908;8.126;2023-08-31T09:41:56;99951.22;;;23.66;42.58
81397;BME280;70852;49.908;8.126;2023-08-31T09:44:23;99952.72;;;24.19;40.41
81397;BME280;70852;49.908;8.126;2023-08-31T09:46:51;99945.72;;;25.25;40.63
81397;BME280;70852;49.908;8.126;2023-08-31T09:49:20;99950.03;;;25.33;37.07
81397;BME280;70852;49.908;8.126;2023-08-31T09:51:47;99951.19;;;22.13;42.59
81397;BME280;70852;49.908;8.126;2023-08-31T09:54:15;99955.63;;;22.10;44.60
81397;BME280;70852;49.908;8.126;2023-08-31T09:56:42;99952.91;;;20.38;49.02
81397;BME280;70852;49.908;8.126;2023-08-31T09:59:09;99947.09;;;22.46;43.79
81397;BME280;70852;49.908;8.126;2023-08-31T10:01:35;99956.28;;;20.76;46.40
81397;BME280;70852;49.908;8.126;2023-08-31T10:04:02;99945.78;;;20.52;47.52
81397;BME280;70852;49.908;8.126;2023-08-31T10:06:27;99945.91;;;21.01;45.61
81397;BME280;70852;49.908;8.126;2023-08-31T10:08:54;99944.19;;;20.61;48.26
81397;BME280;70852;49.908;8.126;2023-08-31T10:11:19;99943.22;;;20.29;48.97
81397;BME280;70852;49.908;8.126;2023-08-31T10:13:45;99939.59;;;21.36;44.18
81397;BME280;70852;49.908;8.126;2023-08-31T10:16:12;99933.84;;;20.76;45.70
81397;BME280;70852;49.908;8.126;2023-08-31T10:18:41;99937.41;;;22.54;43.26
81397;BME280;70852;49.908;8.126;2023-08-31T10:21:06;99937.97;;;23.00;42.47
81397;BME280;70852;49.908;8.126;2023-08-31T10:23:32;99943.75;;;22.69;44.45
81397;BME280;70852;49.908;8.126;2023-08-31T10:26:03;99946.75;;;24.09;39.79
81397;BME280;70852;49.908;8.126;2023-08-31T10:28:39;99938.66;;;25.87;35.91
81397;BME280;70852;49.908;8.126;2023-08-31T10:31:06;99940.38;;;26.67;35.25
81397;BME280;70852;49.908;8.126;2023-08-31T10:35:58;99935.19;;;26.82;33.95
81397;BME280;70852;49.908;8.126;2023-08-31T10:38:30;99944.34;;;26.50;32.72
81397;BME280;70852;49.908;8.126;2023-08-31T10:43:54;99946.69;;;26.94;32.57
81397;BME280;70852;49.908;8.126;2023-08-31T10:49:17;99930.41;;;26.79;32.79
81397;BME280;70852;49.908;8.126;2023-08-31T10:51:48;99936.41;;;27.53;30.97
81397;BME280;70852;49.908;8.126;2023-08-31T10:54:24;99938.56;;;28.10;30.59
81397;BME280;70852;49.908;8.126;2023-08-31T11:02:10;99928.47;;;26.56;31.74
81397;BME280;70852;49.908;8.126;2023-08-31T11:04:59;99931.69;;;27.79;30.39
81397;BME280;70852;49.908;8.126;2023-08-31T11:07:28;99929.13;;;27.84;30.12
81397;BME280;70852;49.908;8.126;2023-08-31T11:12:35;99940.81;;;28.89;27.65
81397;BME280;70852;49.908;8.126;2023-08-31T11:15:01;99934.38;;;27.53;28.84
81397;BME280;70852;49.908;8.126;2023-08-31T11:17:27;99935.88;;;28.35;28.69
81397;BME280;70852;49.908;8.126;2023-08-31T11:19:52;99937.63;;;26.44;31.74
81397;BME280;70852;49.908;8.126;2023-08-31T11:22:20;99937.38;;;26.74;31.39
81397;BME280;70852;49.908;8.126;2023-08-31T11:24:48;99932.28;;;28.02;28.64
81397;BME280;70852;49.908;8.126;2023-08-31T11:27:13;99931.94;;;28.87;28.77
81397;BME280;70852;49.908;8.126;2023-08-31T11:29:45;99929.94;;;28.30;26.99
81397;BME280;70852;49.908;8.126;2023-08-31T11:32:11;99929.38;;;27.25;28.79
81397;BME280;70852;49.908;8.126;2023-08-31T11:34:43;99929.25;;;26.96;29.13
81397;BME280;70852;49.908;8.126;2023-08-31T11:37:12;99926.53;;;25.40;33.44
81397;BME280;70852;49.908;8.126;2023-08-31T11:39:41;99940.28;;;24.13;35.20
81397;BME280;70852;49.908;8.126;2023-08-31T11:42:10;99936.16;;;23.83;36.40
81397;BME280;70852;49.908;8.126;2023-08-31T11:44:40;99929.63;;;22.83;38.98
81397;BME280;70852;49.908;8.126;2023-08-31T11:47:06;99926.59;;;22.38;39.18
81397;BME280;70852;49.908;8.126;2023-08-31T11:49:34;99932.75;;;21.55;39.91
81397;BME280;70852;49.908;8.126;2023-08-31T11:51:59;99927.47;;;20.97;41.95
81397;BME280;70852;49.908;8.126;2023-08-31T11:54:25;99919.03;;;20.82;42.07
81397;BME280;70852;49.908;8.126;2023-08-31T11:56:53;99925.75;;;20.57;42.50
81397;BME280;70852;49.908;8.126;2023-08-31T11:59:19;99917.78;;;20.66;42.84
81397;BME280;70852;49.908;8.126;2023-08-31T12:01:50;99923.34;;;20.59;43.55
81397;BME280;70852;49.908;8.126;2023-08-31T12:04:19;99925.34;;;20.55;43.91
81397;BME280;70852;49.908;8.126;2023-08-31T12:07:01;99918.09;;;20.43;43.44
81397;BME280;70852;49.908;8.126;2023-08-31T12:09:28;99921.75;;;22.42;39.72
81397;BME280;70852;49.908;8.126;2023-08-31T12:11:53;99925.84;;;23.11;38.19
81397;BME280;70852;49.908;8.126;2023-08-31T12:14:20;99926.59;;;22.38;39.91
81397;BME280;70852;49.908;8.126;2023-08-31T12:16:46;99926.88;;;23.34;37.53
81397;BME280;70852;49.908;8.126;2023-08-31T12:19:11;99928.16;;;24.16;36.45
81397;BME280;70852;49.908;8.126;2023-08-31T12:21:42;99924.41;;;24.90;34.25
81397;BME280;70852;49.908;8.126;2023-08-31T12:24:08;99937.66;;;24.36;35.25
81397;BME280;70852;49.908;8.126;2023-08-31T12:26:34;99928.63;;;22.34;38.75
81397;BME280;70852;49.908;8.126;2023-08-31T12:29:02;99932.34;;;21.32;41.33
81397;BME280;70852;49.908;8.126;2023-08-31T12:31:31;99941.53;;;21.14;41.79
81397;BME280;70852;49.908;8.126;2023-08-31T12:33:57;99936.66;;;20.90;44.06
81397;BME280;70852;49.908;8.126;2023-08-31T12:36:22;99933.00;;;20.65;42.22
81397;BME280;70852;49.908;8.126;2023-08-31T12:38:47;99927.25;;;23.88;37.37
81397;BME280;70852;49.908;8.126;2023-08-31T12:41:13;99923.63;;;26.37;33.24
81397;BME280;70852;49.908;8.126;2023-08-31T12:43:38;99933.00;;;27.09;29.35
81397;BME280;70852;49.908;8.126;2023-08-31T12:46:04;99935.06;;;27.41;28.40
81397;BME280;70852;49.908;8.126;2023-08-31T12:48:33;99934.81;;;27.52;28.08
81397;BME280;70852;49.908;8.126;2023-08-31T12:50:58;99934.63;;;26.31;30.58
81397;BME280;70852;49.908;8.126;2023-08-31T12:53:23;99935.25;;;24.34;33.25
81397;BME280;70852;49.908;8.126;2023-08-31T12:55:52;99913.59;;;25.15;31.79
81397;BME280;70852;49.908;8.126;2023-08-31T12:58:20;99920.19;;;25.32;31.09
81397;BME280;70852;49.908;8.126;2023-08-31T13:00:48;99924.59;;;26.86;30.54
81397;BME280;70852;49.908;8.126;2023-08-31T13:03:14;99928.47;;;25.70;31.06
81397;BME280;70852;49.908;8.126;2023-08-31T13:05:42;99925.31;;;26.11;32.76
81397;BME280;70852;49.908;8.126;2023-08-31T13:08:10;99925.47;;;26.23;31.32
81397;BME280;70852;49.908;8.126;2023-08-31T13:10:38;99919.53;;;27.13;30.35
81397;BME280;70852;49.908;8.126;2023-08-31T13:13:03;99914.47;;;26.85;29.82
81397;BME280;70852;49.908;8.126;2023-08-31T13:15:31;99911.03;;;27.46;29.59
81397;BME280;70852;49.908;8.126;2023-08-31T13:17:56;99920.34;;;27.95;28.63
81397;BME280;70852;49.908;8.126;2023-08-31T13:20:22;99923.22;;;28.08;28.25